Map

Track Data

SID SEASON NUMBER BASIN SUBBASIN NAME ISO_TIME NATURE LAT LON WMO_WIND WMO_PRES WMO_AGENCY TRACK_TYPE DIST2LAND LANDFALL IFLAG USA_AGENCY USA_ATCF_ID USA_LAT USA_LON USA_RECORD USA_STATUS USA_WIND USA_PRES USA_SSHS USA_R34_NE USA_R34_SE USA_R34_SW USA_R34_NW USA_R50_NE USA_R50_SE USA_R50_SW USA_R50_NW USA_R64_NE USA_R64_SE USA_R64_SW USA_R64_NW USA_POCI USA_ROCI USA_RMW USA_EYE TOKYO_LAT TOKYO_LON TOKYO_GRADE TOKYO_WIND TOKYO_PRES TOKYO_R50_DIR TOKYO_R50_LONG TOKYO_R50_SHORT TOKYO_R30_DIR TOKYO_R30_LONG TOKYO_R30_SHORT TOKYO_LAND CMA_LAT CMA_LON CMA_CAT CMA_WIND CMA_PRES HKO_LAT HKO_LON HKO_CAT HKO_WIND HKO_PRES NEWDELHI_LAT NEWDELHI_LON NEWDELHI_GRADE NEWDELHI_WIND NEWDELHI_PRES NEWDELHI_CI NEWDELHI_DP NEWDELHI_POCI REUNION_LAT REUNION_LON REUNION_TYPE REUNION_WIND REUNION_PRES REUNION_TNUM REUNION_CI REUNION_RMW REUNION_R34_NE REUNION_R34_SE REUNION_R34_SW REUNION_R34_NW REUNION_R50_NE REUNION_R50_SE REUNION_R50_SW REUNION_R50_NW REUNION_R64_NE REUNION_R64_SE REUNION_R64_SW REUNION_R64_NW BOM_LAT BOM_LON BOM_TYPE BOM_WIND BOM_PRES BOM_TNUM BOM_CI BOM_RMW BOM_R34_NE BOM_R34_SE BOM_R34_SW BOM_R34_NW BOM_R50_NE BOM_R50_SE BOM_R50_SW BOM_R50_NW BOM_R64_NE BOM_R64_SE BOM_R64_SW BOM_R64_NW BOM_ROCI BOM_POCI BOM_EYE BOM_POS_METHOD BOM_PRES_METHOD NADI_LAT NADI_LON NADI_CAT NADI_WIND NADI_PRES WELLINGTON_LAT WELLINGTON_LON WELLINGTON_WIND WELLINGTON_PRES DS824_LAT DS824_LON DS824_STAGE DS824_WIND DS824_PRES TD9636_LAT TD9636_LON TD9636_STAGE TD9636_WIND TD9636_PRES TD9635_LAT TD9635_LON TD9635_WIND TD9635_PRES TD9635_ROCI NEUMANN_LAT NEUMANN_LON NEUMANN_CLASS NEUMANN_WIND NEUMANN_PRES MLC_LAT MLC_LON MLC_CLASS MLC_WIND MLC_PRES USA_GUST BOM_GUST BOM_GUST_PER REUNION_GUST REUNION_GUST_PER USA_SEAHGT USA_SEARAD_NE USA_SEARAD_SE USA_SEARAD_SW USA_SEARAD_NW STORM_SPEED STORM_DIR
1972218N22089 1972 67 NI BB NOT_NAMED 1972-08-05 03:00:00 NR 22.2000 89.0000 main 0 0 __________O___ -1 22.2000 89.0000 1 23 287
1972218N22089 1972 67 NI BB NOT_NAMED 1972-08-05 06:00:00 TS 22.5321 87.7956 main 0 0 O________OP___ jtwc_io IO061972 22.6000 86.8000 -1 22.6000 86.8000 TC 25 22.4642 88.7912 1 23 286
1972218N22089 1972 67 NI BB NOT_NAMED 1972-08-05 09:00:00 TS 22.8447 86.6223 main 0 0 P________PP___ IO061972 22.9362 85.1574 -1 22.9362 85.1574 TC 25 22.7227 88.5756 1 20 287
1972218N22089 1972 67 NI BB NOT_NAMED 1972-08-05 12:00:00 TS 23.1079 85.7389 main 0 0 O________OP___ jtwc_io IO061972 23.2000 84.0000 -1 23.2000 84.0000 TC 25 22.9698 88.3472 1 14 289
1972218N22089 1972 67 NI BB NOT_NAMED 1972-08-05 15:00:00 TS 23.3125 85.1730 main 0 0 P________PO___ IO061972 23.3688 83.7095 -1 23.3688 83.7095 TC 25 23.2000 88.1000 1 5 320
1972218N22089 1972 67 NI BB NOT_NAMED 1972-08-05 18:00:00 TS 23.4695 85.4099 main 0 0 O________OP___ jtwc_io IO061972 23.5000 84.2000 -1 23.5000 84.2000 TC 25 23.4086 87.8295 1 9 69
1972218N22089 1972 67 NI BB NOT_NAMED 1972-08-05 21:00:00 TS 23.6396 86.1218 main 0 0 P________PP___ IO061972 23.6620 85.4140 -1 23.6620 85.4140 TC 25 23.5948 87.5373 1 13 76
1972218N22089 1972 67 NI BB NOT_NAMED 1972-08-06 00:00:00 TS 23.7862 86.8088 main 0 0 O________OP___ jtwc_io IO061972 23.8000 86.6000 -1 23.8000 86.6000 TC 25 23.7586 87.2265 1 7 69
1972218N22089 1972 67 NI BB NOT_NAMED 1972-08-06 03:00:00 TS 23.9038 86.8602 main 0 0 P________PO___ IO061972 23.9058 86.8403 -1 23.9058 86.8403 TC 25 23.9000 86.9000 1 3 318
1972218N22089 1972 67 NI BB NOT_NAMED 1972-08-06 06:00:00 TS 24.0113 86.5840 main 0 0 O________OP___ jtwc_io IO061972 24.0000 86.6000 -1 24.0000 86.6000 TC 25 24.0338 86.5521 1 6 291
1972218N22089 1972 67 NI BB NOT_NAMED 1972-08-06 09:00:00 TS 24.1203 86.2276 main 0 0 P________PP___ IO061972 24.1078 86.2452 -1 24.1078 86.2452 TC 25 24.1452 86.1925 1 7 286
1972218N22089 1972 67 NI BB NOT_NAMED 1972-08-06 12:00:00 TS 24.2113 85.8122 main 0 0 O________OP___ jtwc_io IO061972 24.2000 85.8000 -1 24.2000 85.8000 TC 25 24.2339 85.8366 1 7 283
1972218N22089 1972 67 NI BB NOT_NAMED 1972-08-06 15:00:00 TS 24.2716 85.4849 main 0 0 P________PO___ IO061972 24.2574 85.4774 -1 24.2574 85.4774 TC 25 24.3000 85.5000 1 6 281
1972218N22089 1972 67 NI BB NOT_NAMED 1972-08-06 18:00:00 TS 24.3153 85.2051 main 0 0 O________OP___ jtwc_io IO061972 24.3000 85.2000 -1 24.3000 85.2000 TC 25 24.3460 85.2153 1 5 281
1972218N22089 1972 67 NI BB NOT_NAMED 1972-08-06 21:00:00 TS 24.3622 84.9499 main 0 0 P________PP___ IO061972 24.3574 84.9500 -1 24.3574 84.9500 TC 25 24.3718 84.9496 1 5 280
1972218N22089 1972 67 NI BB NOT_NAMED 1972-08-07 00:00:00 TS 24.3956 84.6947 main 0 0 O________OP___ jtwc_io IO061972 24.4000 84.7000 -1 24.4000 84.7000 TC 25 24.3867 84.6841 1 5 274
1972218N22089 1972 67 NI BB NOT_NAMED 1972-08-07 03:00:00 TS 24.4000 84.4099 main 0 0 P________PO___ IO061972 24.3999 84.4149 -1 24.3999 84.4149 TC 25 24.4000 84.4000 1 5 271
1972218N22089 1972 67 NI BB NOT_NAMED 1972-08-07 06:00:00 TS 24.4069 84.0932 main 0 0 O________OP___ jtwc_io IO061972 24.4000 84.1000 -1 24.4000 84.1000 TC 25 24.4208 84.0796 1 6 275
1972218N22089 1972 67 NI BB NOT_NAMED 1972-08-07 09:00:00 TS 24.4474 83.7558 main 0 0 P________PP___ IO061972 24.4499 83.7651 -1 24.4499 83.7651 TC 25 24.4422 83.7373 1 6 277
1972218N22089 1972 67 NI BB NOT_NAMED 1972-08-07 12:00:00 TS 24.4892 83.3921 main 0 0 O________OP___ jtwc_io IO061972 24.5000 83.4000 -1 24.5000 83.4000 TC 25 24.4676 83.3764 1 7 274
1972218N22089 1972 67 NI BB NOT_NAMED 1972-08-07 15:00:00 TS 24.5000 83.0049 main 0 0 P________PO___ IO061972 24.5000 83.0074 -1 24.5000 83.0074 TC 25 24.5000 83.0000 1 7 271
1972218N22089 1972 67 NI BB NOT_NAMED 1972-08-07 18:00:00 TS 24.5062 82.6006 main 0 0 O________OP___ jtwc_io IO061972 24.5000 82.6000 -1 24.5000 82.6000 TC 25 24.5185 82.6018 1 7 273
1972218N22089 1972 67 NI BB NOT_NAMED 1972-08-07 21:00:00 TS 24.5342 82.1922 main 0 0 P________PP___ IO061972 24.5275 82.1924 -1 24.5275 82.1924 TC 25 24.5476 82.1918 1 7 277
1972218N22089 1972 67 NI BB NOT_NAMED 1972-08-08 00:00:00 TS 24.6010 81.7953 main 0 0 O________OP___ jtwc_io IO061972 24.6000 81.8000 -1 24.6000 81.8000 TC 25 24.6029 81.7860 1 7 285
1972218N22089 1972 67 NI BB NOT_NAMED 1972-08-08 03:00:00 TS 24.7182 81.4283 main 0 0 P________PO___ IO061972 24.7274 81.4425 -1 24.7274 81.4425 TC 25 24.7000 81.4000 1 7 294
1972218N22089 1972 67 NI BB NOT_NAMED 1972-08-08 06:00:00 TS 24.8854 81.0872 main 0 0 O________OP___ jtwc_io IO061972 24.9000 81.1000 -1 24.9000 81.1000 TC 25 24.8563 81.0617 1 7 300
1972218N22089 1972 67 NI BB NOT_NAMED 1972-08-08 09:00:00 TS 25.0797 80.7475 main 0 0 P________PP___ IO061972 25.0924 80.7499 -1 25.0924 80.7499 TC 25 25.0542 80.7425 1 7 304
1972218N22089 1972 67 NI BB NOT_NAMED 1972-08-08 12:00:00 TS 25.2917 80.4090 main 0 0 O________OP___ jtwc_io IO061972 25.3000 80.4000 -1 25.3000 80.4000 TC 25 25.2751 80.4271 1 7 304
1972218N22089 1972 67 NI BB NOT_NAMED 1972-08-08 15:00:00 TS 25.4999 80.0716 main 0 0 P________PO___ IO061972 25.4999 80.0573 -1 25.4999 80.0573 TC 25 25.5000 80.1000 1 8 303
1972218N22089 1972 67 NI BB NOT_NAMED 1972-08-08 18:00:00 TS 25.7055 79.7024 main 0 0 O________OP___ jtwc_io IO061972 25.7000 79.7000 -1 25.7000 79.7000 TC 25 25.7166 79.7073 1 8 300
1972218N22089 1972 67 NI BB NOT_NAMED 1972-08-08 21:00:00 TS 25.9102 79.2969 main 0 0 P________PP___ IO061972 25.9001 79.2925 -1 25.9001 79.2925 TC 25 25.9306 79.3056 1 8 300
1972218N22089 1972 67 NI BB NOT_NAMED 1972-08-09 00:00:00 TS 26.1097 78.9087 main 0 0 O________OP___ jtwc_io IO061972 26.1000 78.9000 -1 26.1000 78.9000 TC 25 26.1292 78.9261 1 8 302
1972218N22089 1972 67 NI BB NOT_NAMED 1972-08-09 03:00:00 TS 26.3150 78.5750 main 0 0 P________PO___ IO061972 26.3224 78.5626 -1 26.3224 78.5626 TC 25 26.3000 78.6000 1 6 305
1972218N22089 1972 67 NI BB NOT_NAMED 1972-08-09 06:00:00 TS 26.4802 78.3155 main 0 0 O________OP___ jtwc_io IO061972 26.5000 78.3000 -1 26.5000 78.3000 TC 25 26.4405 78.3466 1 5 302
1972218N22089 1972 67 NI BB NOT_NAMED 1972-08-09 09:00:00 TS 26.5656 78.1255 main 0 0 P________PP___ IO061972 26.5724 78.1123 -1 26.5724 78.1123 TC 25 26.5520 78.1519 1 3 295
1972218N22089 1972 67 NI BB NOT_NAMED 1972-08-09 12:00:00 TS 26.6125 78.0021 main 0 0 O________OP___ jtwc_io IO061972 26.6000 78.0000 -1 26.6000 78.0000 TC 25 26.6375 78.0062 1 2 299
1972218N22089 1972 67 NI AS NOT_NAMED 1972-08-09 15:00:00 TS 26.6666 77.9233 main 0 0 P________PO___ IO061972 26.6500 77.9350 -1 26.6500 77.9350 TC 25 26.7000 77.9000 1 2 310
1972218N22089 1972 67 NI AS NOT_NAMED 1972-08-09 18:00:00 TS 26.7114 77.8713 main 0 0 O________OP___ jtwc_io IO061972 26.7000 77.9000 -1 26.7000 77.9000 TC 25 26.7342 77.8138 1 1 315
1972218N22089 1972 67 NI AS NOT_NAMED 1972-08-09 21:00:00 TS 26.7499 77.8207 main 0 0 P________PP___ IO061972 26.7500 77.8500 -1 26.7500 77.8500 TC 25 26.7498 77.7622 1 1 311
1972218N22089 1972 67 NI AS NOT_NAMED 1972-08-10 00:00:00 TS 26.7885 77.7765 main 0 0 O________OP___ jtwc_io IO061972 26.8000 77.8000 -1 26.8000 77.8000 TC 25 26.7655 77.7295 1 1 314
1972218N22089 1972 67 NI AS NOT_NAMED 1972-08-10 03:00:00 TS 26.8283 77.7333 main 0 0 P________PO___ IO061972 26.8425 77.7500 -1 26.8425 77.7500 TC 25 26.8000 77.7000 1 1 320
1972218N22089 1972 67 NI AS NOT_NAMED 1972-08-10 06:00:00 TS 26.8982 77.6807 main 0 0 O________OP___ jtwc_io IO061972 26.9000 77.7000 -1 26.9000 77.7000 TC 25 26.8947 77.6420 1 2 332
1972218N22089 1972 67 NI AS NOT_NAMED 1972-08-10 09:00:00 TS 27.0025 77.6284 main 0 0 P________PP___ IO061972 27.0000 77.6500 -1 27.0000 77.6500 TC 25 27.0075 77.5851 1 2 338
1972218N22089 1972 67 NI AS NOT_NAMED 1972-08-10 12:00:00 TS 27.1055 77.5786 main 0 0 O________OP___ jtwc_io IO061972 27.1000 77.6000 -1 27.1000 77.6000 TC 25 27.1166 77.5357 1 2 334
1972218N22089 1972 67 NI AS NOT_NAMED 1972-08-10 15:00:00 TS 27.1767 77.5283 main 0 0 P________PO___ IO061972 27.1650 77.5425 -1 27.1650 77.5425 TC 25 27.2000 77.5000 1 1 323
1972218N22089 1972 67 NI AS NOT_NAMED 1972-08-10 18:00:00 TS 27.2001 77.4979 main 0 0 O________OP___ jtwc_io IO061972 27.2000 77.5000 -1 27.2000 77.5000 TC 25 27.2003 77.4936 1 0 294
1972218N22089 1972 67 NI AS NOT_NAMED 1972-08-10 21:00:00 TS 27.1925 77.4949 main 0 0 P________PP___ IO061972 27.2000 77.4925 -1 27.2000 77.4925 TC 25 27.1775 77.4998 1 0 0
1972218N22089 1972 67 NI AS NOT_NAMED 1972-08-11 00:00:00 TS 27.1886 77.5020 main 0 0 O________OP___ jtwc_io IO061972 27.2000 77.5000 -1 27.2000 77.5000 TC 25 27.1659 77.5061 1 0 0
1972218N22089 1972 67 NI AS NOT_NAMED 1972-08-11 03:00:00 TS 27.2133 77.5050 main 0 0 P________PO___ IO061972 27.2200 77.5075 -1 27.2200 77.5075 TC 25 27.2000 77.5000 1 1 351
1972218N22089 1972 67 NI AS NOT_NAMED 1972-08-11 06:00:00 TS 27.3123 77.4882 main 0 0 O________OP___ jtwc_io IO061972 27.3000 77.5000 -1 27.3000 77.5000 TC 25 27.3369 77.4645 1 3 350
1972218N22089 1972 67 NI AS NOT_NAMED 1972-08-11 09:00:00 TS 27.4967 77.4434 main 0 0 P________PP___ IO061972 27.4850 77.4575 -1 27.4850 77.4575 TC 25 27.5200 77.4152 1 4 347
1972218N22089 1972 67 NI AS NOT_NAMED 1972-08-11 12:00:00 TS 27.7060 77.3861 main 0 0 O________OP___ jtwc_io IO061972 27.7000 77.4000 -1 27.7000 77.4000 TC 25 27.7181 77.3583 1 4 346
1972218N22089 1972 67 NI AS NOT_NAMED 1972-08-11 15:00:00 TS 27.8767 77.3333 main 0 0 P________PO___ IO061972 27.8650 77.3500 -1 27.8650 77.3500 TC 25 27.9000 77.3000 1 3 344
1972218N22089 1972 67 NI AS NOT_NAMED 1972-08-11 18:00:00 TS 28.0058 77.2900 main 0 0 O________OP___ jtwc_io IO061972 28.0000 77.3000 -1 28.0000 77.3000 TC 25 28.0174 77.2701 1 2 343
1972218N22089 1972 67 NI AS NOT_NAMED 1972-08-11 21:00:00 TS 28.1099 77.2507 main 0 0 P________PP___ IO061972 28.1075 77.2575 -1 28.1075 77.2575 TC 25 28.1148 77.2371 1 2 339
1972218N22089 1972 67 NI AS NOT_NAMED 1972-08-12 00:00:00 TS 28.2016 77.1952 main 0 0 O________OP___ jtwc_io IO061972 28.2000 77.2000 -1 28.2000 77.2000 TC 25 28.2049 77.1857 1 2 327
1972218N22089 1972 67 NI AS NOT_NAMED 1972-08-12 03:00:00 TS 28.2950 77.1149 main 0 0 P________PO___ IO061972 28.2925 77.1224 -1 28.2925 77.1224 TC 25 28.3000 77.1000 1 3 318
1972218N22089 1972 67 NI AS NOT_NAMED 1972-08-12 06:00:00 TS 28.4040 76.9877 main 0 0 O________OP___ jtwc_io IO061972 28.4000 77.0000 -1 28.4000 77.0000 TC 25 28.4099 76.9691 1 4 312
1972218N22089 1972 67 NI AS NOT_NAMED 1972-08-12 09:00:00 TS 28.5370 76.8104 main 0 0 P________PP___ IO061972 28.5401 76.8177 -1 28.5401 76.8177 TC 25 28.5329 76.8007 1 4 310
1972218N22089 1972 67 NI AS NOT_NAMED 1972-08-12 12:00:00 TS 28.6822 76.6034 main 0 0 O________OP___ jtwc_io IO061972 28.7000 76.6000 -1 28.7000 76.6000 TC 25 28.6644 76.6068 1 4 306
1972218N22089 1972 67 NI AS NOT_NAMED 1972-08-12 15:00:00 NR 28.8000 76.4000 main 0 __________O___ IO061972 -1 TC 28.8000 76.4000 1 4 304

About IBTrACS Database

This database is a web-friendly format of International Best Track Archive for Climate Stewardship (IBTrACS), a global best track data archive curated by NOAA dating back to 1842.

Updated: 2021-11-26